Appleton, New York
Current Conditions -  °F | °C
As of 3:53 AM on Sunday 26 Oct 2014 (Local Time) from KIAG Reporting Station
Clear Clear  
Wind Chill: 40°   Ceiling: Unl
Heat Index: 46°   Visibility: 10mi
Dew Point: 39°   Wind: 14mph
Humidity: 76%   Direction: 240°WSW
Pressure: 29.66"   Gusts: NA
Location:  43.33°N, 78.65°W
Report Text: KIAG 260753Z AUTO 24012KT 10SM CLR 08/04 A2966 RMK AO2 SLP047 T00780039
Loading
Personal Weather Stations






























Interactive Weather Map
Tropical Storm Tracking
New forecast layout! Learn more

10-Day Weather Forecast

Advertisements
Track Severe Weather on mobile